Time;durP1;ratioP1;P1;durP2;ratioP2;P2;SDS_P1;SDS_P2;PMS_P1;PMS_P2;Temp;Humidity;BMP_temperature;BMP_pressure;BME280_temperature;BME280_humidity;BME280_pressure;Samples;Min_cycle;Max_cycle;Signal;HPM_P1;HPM_P2
2022/06/30 00:01:52;;;;;;;2.35;2.25;;;;;;;;;;5074373;28;20247;-86
2022/06/30 00:04:19;;;;;;;2.88;2.60;;;;;;;;;;5075238;28;20240;-86
2022/06/30 00:06:47;;;;;;;2.67;2.47;;;;;;;;;;5075796;28;20208;-85
2022/06/30 00:09:15;;;;;;;2.95;2.75;;;;;;;;;;5075659;28;20310;-85
2022/06/30 00:11:43;;;;;;;2.60;2.50;;;;;;;;;;5075364;28;20225;-85
2022/06/30 00:14:11;;;;;;;2.70;2.50;;;;;;;;;;5074884;28;20236;-86
2022/06/30 00:16:38;;;;;;;2.60;2.40;;;;;;;;;;5075415;28;20334;-85
2022/06/30 00:19:06;;;;;;;2.92;2.47;;;;;;;;;;5075053;28;20264;-86
2022/06/30 00:21:33;;;;;;;2.35;2.20;;;;;;;;;;5059576;28;20304;-84
2022/06/30 00:24:01;;;;;;;2.58;2.47;;;;;;;;;;5055506;28;20233;-85
2022/06/30 00:26:30;;;;;;;2.72;2.53;;;;;;;;;;5055221;28;20268;-86
2022/06/30 00:28:57;;;;;;;2.65;2.45;;;;;;;;;;5055040;28;20271;-85
2022/06/30 00:31:25;;;;;;;3.10;2.90;;;;;;;;;;5054022;28;20233;-85
2022/06/30 00:33:52;;;;;;;3.00;2.80;;;;;;;;;;5054439;28;20239;-84
2022/06/30 00:36:20;;;;;;;2.50;2.30;;;;;;;;;;5055559;28;20240;-84
2022/06/30 00:38:47;;;;;;;2.50;2.40;;;;;;;;;;5054431;28;20257;-84
2022/06/30 00:41:15;;;;;;;2.50;2.30;;;;;;;;;;5055156;28;20675;-85
2022/06/30 00:43:45;;;;;;;2.50;2.33;;;;;;;;;;5054153;28;20240;-84
2022/06/30 00:46:14;;;;;;;3.25;3.05;;;;;;;;;;5055284;28;20257;-84
2022/06/30 00:48:42;;;;;;;3.47;3.28;;;;;;;;;;5054862;28;20221;-85
2022/06/30 00:51:11;;;;;;;3.35;3.10;;;;;;;;;;5066782;28;20236;-84
2022/06/30 00:53:41;;;;;;;3.58;3.28;;;;;;;;;;5074447;28;20284;-84
2022/06/30 00:56:10;;;;;;;3.60;3.38;;;;;;;;;;5074316;28;20581;-84
2022/06/30 00:58:41;;;;;;;3.03;2.80;;;;;;;;;;5074583;28;20221;-83
2022/06/30 01:01:11;;;;;;;3.17;2.97;;;;;;;;;;5074974;28;20212;-84
2022/06/30 01:03:39;;;;;;;3.35;3.15;;;;;;;;;;5074030;28;20625;-84
2022/06/30 01:06:07;;;;;;;3.30;3.05;;;;;;;;;;5074334;28;20256;-84
2022/06/30 01:08:35;;;;;;;3.58;2.75;;;;;;;;;;5073965;28;20255;-84
2022/06/30 01:13:49;;;;;;;3.60;3.28;;;;;;;;;;5074171;28;20200;-84
2022/06/30 01:16:21;;;;;;;3.55;3.25;;;;;;;;;;5074883;28;20239;-84
2022/06/30 01:18:49;;;;;;;3.70;3.50;;;;;;;;;;5073984;28;20229;-84
2022/06/30 01:21:19;;;;;;;3.50;3.30;;;;;;;;;;5074434;28;20240;-84
2022/06/30 01:23:48;;;;;;;3.20;3.00;;;;;;;;;;5074741;28;20692;-84
2022/06/30 01:26:15;;;;;;;3.15;2.95;;;;;;;;;;5075049;28;20357;-84
2022/06/30 01:28:43;;;;;;;3.30;3.08;;;;;;;;;;5074443;28;20263;-85
2022/06/30 01:31:10;;;;;;;2.90;2.70;;;;;;;;;;5073681;28;20232;-86
2022/06/30 01:33:38;;;;;;;3.25;3.03;;;;;;;;;;5073218;28;20201;-85
2022/06/30 01:36:06;;;;;;;3.15;2.95;;;;;;;;;;5073890;28;20232;-86
2022/06/30 01:38:33;;;;;;;3.90;3.13;;;;;;;;;;5073401;28;20687;-85
2022/06/30 01:41:02;;;;;;;3.75;3.20;;;;;;;;;;5072637;28;20232;-81
2022/06/30 01:43:30;;;;;;;3.63;3.33;;;;;;;;;;5075180;28;20243;-81
2022/06/30 01:45:57;;;;;;;4.00;3.67;;;;;;;;;;5076258;28;20307;-81
2022/06/30 01:48:25;;;;;;;3.17;2.97;;;;;;;;;;5076148;28;20644;-79
2022/06/30 01:50:53;;;;;;;3.00;2.80;;;;;;;;;;5076331;28;20240;-80
2022/06/30 01:53:20;;;;;;;4.00;3.58;;;;;;;;;;5076131;28;20205;-80
2022/06/30 01:55:48;;;;;;;3.83;3.53;;;;;;;;;;5076541;28;20292;-80
2022/06/30 01:58:16;;;;;;;3.58;3.38;;;;;;;;;;5075810;28;20224;-80
2022/06/30 02:00:44;;;;;;;3.20;3.00;;;;;;;;;;5075912;28;20292;-81
2022/06/30 02:03:12;;;;;;;3.60;3.30;;;;;;;;;;5076125;28;20232;-80
2022/06/30 02:05:39;;;;;;;3.63;3.33;;;;;;;;;;5076191;28;20229;-79
2022/06/30 02:08:07;;;;;;;3.30;3.00;;;;;;;;;;5075673;28;20522;-79
2022/06/30 02:10:34;;;;;;;3.30;2.95;;;;;;;;;;5076040;28;20237;-80
2022/06/30 02:13:02;;;;;;;3.72;3.53;;;;;;;;;;5075842;28;20245;-80
2022/06/30 02:15:33;;;;;;;3.38;3.08;;;;;;;;;;5076032;28;20236;-80
2022/06/30 02:18:04;;;;;;;3.90;3.50;;;;;;;;;;5076208;28;20228;-79
2022/06/30 02:20:32;;;;;;;3.47;2.80;;;;;;;;;;5075012;28;20274;-79
2022/06/30 02:23:01;;;;;;;3.58;3.28;;;;;;;;;;5076404;28;20236;-79
2022/06/30 02:25:31;;;;;;;3.95;3.65;;;;;;;;;;5075667;28;20233;-79
2022/06/30 02:27:59;;;;;;;3.22;3.00;;;;;;;;;;5076165;28;20229;-79
2022/06/30 02:30:26;;;;;;;3.67;3.38;;;;;;;;;;5076063;28;20235;-79
2022/06/30 02:32:55;;;;;;;3.03;2.83;;;;;;;;;;5075276;28;20618;-80
2022/06/30 02:35:23;;;;;;;2.83;2.63;;;;;;;;;;5075683;28;20651;-80
2022/06/30 02:37:51;;;;;;;3.22;3.00;;;;;;;;;;5075328;28;20286;-80
2022/06/30 02:40:19;;;;;;;3.35;3.05;;;;;;;;;;5076059;28;20284;-80
2022/06/30 02:42:46;;;;;;;5.40;3.55;;;;;;;;;;5075442;28;20236;-80
2022/06/30 02:45:14;;;;;;;4.25;3.45;;;;;;;;;;5075965;28;20197;-80
2022/06/30 02:47:43;;;;;;;3.38;3.15;;;;;;;;;;5075721;28;20229;-80
2022/06/30 02:50:14;;;;;;;3.25;3.05;;;;;;;;;;5075430;28;20204;-81
2022/06/30 02:52:42;;;;;;;2.92;2.72;;;;;;;;;;5075217;28;20224;-81
2022/06/30 02:55:10;;;;;;;3.35;3.03;;;;;;;;;;5075594;28;20563;-80
2022/06/30 02:57:39;;;;;;;2.80;2.60;;;;;;;;;;5075567;28;20651;-80
2022/06/30 03:00:09;;;;;;;3.58;3.28;;;;;;;;;;5075425;28;20236;-80
2022/06/30 03:02:37;;;;;;;3.65;3.30;;;;;;;;;;5075229;28;20225;-79
2022/06/30 03:05:05;;;;;;;3.55;3.25;;;;;;;;;;5075329;28;20314;-80
2022/06/30 03:07:35;;;;;;;3.92;3.63;;;;;;;;;;5074944;28;20692;-80
2022/06/30 03:10:02;;;;;;;3.35;2.97;;;;;;;;;;5075445;28;20661;-79
2022/06/30 03:12:30;;;;;;;3.45;3.17;;;;;;;;;;5075243;28;20879;-79
2022/06/30 03:14:58;;;;;;;3.03;2.83;;;;;;;;;;5074941;28;20228;-81
2022/06/30 03:17:26;;;;;;;4.05;3.75;;;;;;;;;;5074669;28;20264;-80
2022/06/30 03:19:54;;;;;;;3.60;3.40;;;;;;;;;;5074669;28;20209;-80
2022/06/30 03:22:21;;;;;;;3.40;3.20;;;;;;;;;;5074909;28;20799;-80
2022/06/30 03:24:50;;;;;;;3.22;2.92;;;;;;;;;;5074832;28;20239;-81
2022/06/30 03:27:18;;;;;;;3.17;2.97;;;;;;;;;;5074977;28;20256;-79
2022/06/30 03:29:45;;;;;;;3.05;2.85;;;;;;;;;;5074288;28;20240;-80
2022/06/30 03:32:13;;;;;;;2.88;2.67;;;;;;;;;;5074436;28;20225;-79
2022/06/30 03:34:40;;;;;;;3.08;2.88;;;;;;;;;;5074637;28;20549;-79
2022/06/30 03:37:08;;;;;;;3.40;3.20;;;;;;;;;;5074583;28;20199;-79
2022/06/30 03:39:35;;;;;;;3.85;3.55;;;;;;;;;;5074171;28;20236;-80
2022/06/30 03:42:05;;;;;;;3.05;2.85;;;;;;;;;;5074174;28;20720;-79
2022/06/30 03:44:32;;;;;;;3.47;3.17;;;;;;;;;;5074056;28;20677;-80
2022/06/30 03:47:00;;;;;;;3.15;2.95;;;;;;;;;;5074756;28;20257;-80
2022/06/30 03:49:28;;;;;;;2.78;2.58;;;;;;;;;;5074161;28;20232;-80
2022/06/30 03:51:55;;;;;;;2.95;2.75;;;;;;;;;;5072875;28;20271;-80
2022/06/30 03:54:23;;;;;;;2.58;2.47;;;;;;;;;;5074023;28;20200;-80
2022/06/30 03:56:50;;;;;;;3.10;2.58;;;;;;;;;;5073790;28;20771;-79
2022/06/30 03:59:19;;;;;;;3.15;2.63;;;;;;;;;;5073633;28;20275;-80
2022/06/30 04:01:47;;;;;;;3.28;3.08;;;;;;;;;;5073946;28;20241;-80
2022/06/30 04:04:14;;;;;;;2.22;2.13;;;;;;;;;;5074107;28;20201;-80
2022/06/30 04:06:42;;;;;;;2.80;2.60;;;;;;;;;;5072948;28;20680;-80
2022/06/30 04:09:10;;;;;;;2.70;2.50;;;;;;;;;;5073702;28;20235;-79
2022/06/30 04:11:38;;;;;;;3.10;2.90;;;;;;;;;;5074057;28;20205;-79
2022/06/30 04:14:05;;;;;;;2.88;2.70;;;;;;;;;;5073920;28;20251;-79
2022/06/30 04:16:34;;;;;;;2.78;2.58;;;;;;;;;;5073849;28;20259;-79
2022/06/30 04:19:02;;;;;;;3.05;2.75;;;;;;;;;;5074011;28;20247;-80
2022/06/30 04:21:29;;;;;;;2.78;2.58;;;;;;;;;;5073075;28;20200;-81
2022/06/30 04:23:57;;;;;;;2.63;2.30;;;;;;;;;;5073753;28;20240;-81
2022/06/30 04:26:24;;;;;;;2.33;2.15;;;;;;;;;;5073144;28;20228;-80
2022/06/30 04:28:52;;;;;;;1.90;1.80;;;;;;;;;;5073808;28;20256;-81
2022/06/30 04:34:06;;;;;;;3.33;3.13;;;;;;;;;;5074217;28;20184;-80
2022/06/30 04:36:34;;;;;;;2.80;2.60;;;;;;;;;;5073533;28;20236;-79
2022/06/30 04:39:01;;;;;;;2.53;2.33;;;;;;;;;;5073213;28;20257;-80
2022/06/30 04:41:28;;;;;;;3.15;2.95;;;;;;;;;;5073685;28;20650;-80
2022/06/30 04:43:56;;;;;;;2.60;2.40;;;;;;;;;;5073410;28;20230;-81
2022/06/30 04:46:24;;;;;;;3.05;2.85;;;;;;;;;;5074372;28;20229;-80
2022/06/30 04:48:52;;;;;;;3.72;3.42;;;;;;;;;;5074146;28;20649;-80
2022/06/30 04:51:22;;;;;;;3.25;2.97;;;;;;;;;;5073745;28;20284;-80
2022/06/30 04:53:50;;;;;;;3.58;3.28;;;;;;;;;;5073588;28;20243;-80
2022/06/30 04:56:18;;;;;;;3.88;3.47;;;;;;;;;;5074112;28;20204;-79
2022/06/30 04:58:46;;;;;;;3.90;3.60;;;;;;;;;;5074000;28;20259;-80
2022/06/30 05:01:14;;;;;;;3.70;3.40;;;;;;;;;;5073861;28;20197;-79
2022/06/30 05:03:42;;;;;;;4.10;3.80;;;;;;;;;;5074192;28;20707;-80
2022/06/30 05:06:10;;;;;;;3.60;3.30;;;;;;;;;;5073740;28;20205;-81
2022/06/30 05:08:40;;;;;;;4.72;4.32;;;;;;;;;;5074115;28;20797;-82
2022/06/30 05:11:07;;;;;;;5.63;5.03;;;;;;;;;;5074048;28;20712;-81
2022/06/30 05:13:35;;;;;;;5.00;4.60;;;;;;;;;;5073802;28;20600;-80
2022/06/30 05:16:04;;;;;;;4.25;3.95;;;;;;;;;;5074194;28;20252;-81
2022/06/30 05:18:31;;;;;;;5.90;5.40;;;;;;;;;;5077903;28;20697;-80
2022/06/30 05:20:59;;;;;;;5.00;4.60;;;;;;;;;;5077874;28;20232;-81
2022/06/30 05:23:27;;;;;;;4.72;4.32;;;;;;;;;;5078680;28;20228;-80
2022/06/30 05:28:39;;;;;;;4.38;4.07;;;;;;;;;;5066958;28;20308;-80
2022/06/30 05:31:07;;;;;;;4.82;4.43;;;;;;;;;;5077463;28;20304;-80
2022/06/30 05:33:34;;;;;;;6.25;5.65;;;;;;;;;;5077414;28;20288;-80
2022/06/30 05:36:02;;;;;;;4.88;4.47;;;;;;;;;;5077316;28;20232;-80
2022/06/30 05:38:30;;;;;;;4.97;4.57;;;;;;;;;;5077381;28;20248;-79
2022/06/30 05:40:59;;;;;;;5.03;4.63;;;;;;;;;;5077656;28;20204;-80
2022/06/30 05:43:26;;;;;;;5.45;5.05;;;;;;;;;;5077180;28;20196;-81
2022/06/30 05:45:55;;;;;;;5.03;4.60;;;;;;;;;;5076656;28;20233;-80
2022/06/30 05:48:22;;;;;;;5.38;4.95;;;;;;;;;;5077428;28;20589;-80
2022/06/30 05:50:50;;;;;;;4.65;4.25;;;;;;;;;;5076680;28;20235;-80
2022/06/30 05:53:18;;;;;;;7.15;5.90;;;;;;;;;;5077228;28;20681;-81
2022/06/30 05:55:45;;;;;;;5.20;4.70;;;;;;;;;;5077014;28;20236;-80
2022/06/30 05:58:16;;;;;;;6.22;5.72;;;;;;;;;;5076604;28;20217;-81
2022/06/30 06:00:44;;;;;;;5.70;5.20;;;;;;;;;;5076822;28;20227;-80
2022/06/30 06:03:11;;;;;;;6.25;5.72;;;;;;;;;;5076918;28;20304;-81
2022/06/30 06:05:39;;;;;;;5.47;5.07;;;;;;;;;;5076400;28;20292;-81
2022/06/30 06:08:08;;;;;;;6.10;5.60;;;;;;;;;;5074366;28;20259;-80
2022/06/30 06:10:35;;;;;;;5.90;5.38;;;;;;;;;;5076505;28;20658;-81
2022/06/30 06:13:03;;;;;;;5.95;5.45;;;;;;;;;;5076754;28;20205;-81
2022/06/30 06:15:32;;;;;;;6.40;5.80;;;;;;;;;;5076432;28;20232;-80
2022/06/30 06:17:59;;;;;;;7.68;6.97;;;;;;;;;;5076478;28;20224;-81
2022/06/30 06:20:27;;;;;;;7.97;7.32;;;;;;;;;;5076256;28;20236;-81
2022/06/30 06:22:55;;;;;;;6.65;6.15;;;;;;;;;;5076586;28;20232;-80
2022/06/30 06:25:22;;;;;;;7.95;7.25;;;;;;;;;;5077104;28;20238;-79
2022/06/30 06:30:33;;;;;;;7.63;7.03;;;;;;;;;;5075437;28;20228;-80
2022/06/30 06:33:01;;;;;;;8.63;7.75;;;;;;;;;;5076336;28;20208;-80
2022/06/30 06:35:29;;;;;;;7.63;6.97;;;;;;;;;;5076783;28;20293;-81
2022/06/30 06:37:56;;;;;;;8.02;7.32;;;;;;;;;;5076487;28;20762;-80
2022/06/30 06:40:24;;;;;;;7.35;6.78;;;;;;;;;;5075948;28;20228;-81
2022/06/30 06:42:51;;;;;;;10.13;9.13;;;;;;;;;;5076811;28;20245;-81
2022/06/30 06:45:19;;;;;;;8.88;7.97;;;;;;;;;;5076186;28;20232;-80
2022/06/30 06:47:48;;;;;;;8.70;7.90;;;;;;;;;;5076166;28;20260;-80
2022/06/30 06:50:16;;;;;;;7.93;7.22;;;;;;;;;;5076188;28;20693;-80
2022/06/30 06:52:43;;;;;;;8.25;7.65;;;;;;;;;;5076319;28;20207;-81
2022/06/30 06:55:11;;;;;;;7.05;6.45;;;;;;;;;;5076101;28;20201;-81
2022/06/30 06:57:43;;;;;;;7.60;7.00;;;;;;;;;;5078248;28;20286;-82
2022/06/30 07:00:13;;;;;;;6.88;6.28;;;;;;;;;;5078723;28;20204;-82
2022/06/30 07:02:41;;;;;;;8.98;8.18;;;;;;;;;;5079287;28;20572;-82
2022/06/30 07:05:11;;;;;;;8.60;7.90;;;;;;;;;;5078849;28;20224;-81
2022/06/30 07:07:40;;;;;;;7.72;7.13;;;;;;;;;;5078586;28;20221;-81
2022/06/30 07:10:09;;;;;;;9.40;8.60;;;;;;;;;;5078227;28;20228;-82
2022/06/30 07:12:37;;;;;;;7.22;6.50;;;;;;;;;;5078921;28;20591;-81
2022/06/30 07:15:06;;;;;;;8.30;7.60;;;;;;;;;;5078603;28;20594;-81
2022/06/30 07:17:36;;;;;;;9.00;8.30;;;;;;;;;;5077853;28;20264;-81
2022/06/30 07:20:05;;;;;;;8.15;7.55;;;;;;;;;;5078697;28;20653;-80
2022/06/30 07:22:35;;;;;;;7.68;7.07;;;;;;;;;;5078187;28;20201;-81
2022/06/30 07:25:03;;;;;;;8.45;7.70;;;;;;;;;;5077725;28;20201;-81
2022/06/30 07:27:31;;;;;;;8.95;8.15;;;;;;;;;;5075276;28;20248;-82
2022/06/30 07:29:58;;;;;;;7.20;6.60;;;;;;;;;;5075619;28;20221;-81
2022/06/30 07:32:26;;;;;;;7.63;7.00;;;;;;;;;;5075609;28;20229;-81
2022/06/30 07:34:54;;;;;;;7.68;7.07;;;;;;;;;;5075459;28;20287;-82
2022/06/30 07:37:21;;;;;;;5.95;5.47;;;;;;;;;;5075341;28;20201;-81
2022/06/30 07:39:50;;;;;;;6.90;6.32;;;;;;;;;;5075937;28;20217;-84
2022/06/30 07:42:18;;;;;;;7.30;6.70;;;;;;;;;;5077473;28;20662;-85
2022/06/30 07:44:45;;;;;;;6.90;6.22;;;;;;;;;;5077228;28;20239;-84
2022/06/30 07:47:14;;;;;;;7.15;6.65;;;;;;;;;;5078132;28;20273;-85
2022/06/30 07:49:42;;;;;;;7.88;7.28;;;;;;;;;;5078171;28;20316;-85
2022/06/30 07:52:09;;;;;;;7.68;6.93;;;;;;;;;;5077376;28;20231;-85
2022/06/30 07:54:37;;;;;;;7.60;6.93;;;;;;;;;;5078363;28;20203;-84
2022/06/30 07:57:06;;;;;;;8.63;7.88;;;;;;;;;;5078944;28;20697;-84
2022/06/30 07:59:34;;;;;;;8.73;8.05;;;;;;;;;;5078204;28;20193;-84
2022/06/30 08:02:02;;;;;;;8.90;8.20;;;;;;;;;;5078095;28;20229;-84
2022/06/30 08:04:29;;;;;;;12.93;8.77;;;;;;;;;;5078345;28;20273;-84
2022/06/30 08:06:57;;;;;;;7.75;7.05;;;;;;;;;;5078133;28;20208;-83
2022/06/30 08:09:24;;;;;;;7.78;7.18;;;;;;;;;;5078104;28;20220;-84
2022/06/30 08:11:53;;;;;;;7.40;6.80;;;;;;;;;;5077517;28;20263;-84
2022/06/30 08:14:22;;;;;;;7.75;7.15;;;;;;;;;;5077363;28;20215;-85
2022/06/30 08:16:50;;;;;;;6.82;6.22;;;;;;;;;;5077570;28;20566;-85
2022/06/30 08:19:19;;;;;;;8.10;7.50;;;;;;;;;;5076596;28;20757;-85
2022/06/30 08:21:47;;;;;;;7.43;6.85;;;;;;;;;;5076833;28;20681;-84
2022/06/30 08:24:15;;;;;;;8.55;7.75;;;;;;;;;;5076966;28;20288;-85
2022/06/30 08:26:42;;;;;;;8.70;7.90;;;;;;;;;;5076915;28;20201;-85
2022/06/30 08:29:12;;;;;;;6.13;5.70;;;;;;;;;;5076607;28;20256;-85
2022/06/30 08:31:42;;;;;;;5.70;5.30;;;;;;;;;;5076539;28;20228;-85
2022/06/30 08:34:09;;;;;;;6.68;6.07;;;;;;;;;;5076257;28;20658;-85
2022/06/30 08:36:37;;;;;;;6.97;6.47;;;;;;;;;;5077229;28;20270;-85
2022/06/30 08:42:02;;;;;;;7.53;6.85;;;;;;;;;;5076705;28;20658;-84
2022/06/30 08:42:03;;;;;;;6.63;6.13;;;;;;;;;;5075895;28;20296;-84
2022/06/30 08:44:34;;;;;;;6.68;6.15;;;;;;;;;;5077596;28;20227;-85
2022/06/30 08:47:05;;;;;;;6.93;6.32;;;;;;;;;;5076977;28;20200;-85
2022/06/30 08:49:34;;;;;;;6.18;5.70;;;;;;;;;;5077307;28;20204;-84
2022/06/30 08:52:03;;;;;;;7.82;7.13;;;;;;;;;;5076408;28;20561;-85
2022/06/30 08:54:31;;;;;;;7.13;6.53;;;;;;;;;;5076081;28;20219;-85
2022/06/30 08:57:01;;;;;;;6.97;6.47;;;;;;;;;;5077868;28;20657;-85
2022/06/30 08:59:30;;;;;;;6.65;6.20;;;;;;;;;;5078143;28;20612;-85
2022/06/30 09:01:57;;;;;;;7.10;6.53;;;;;;;;;;5076931;28;20654;-85
2022/06/30 09:04:26;;;;;;;6.22;5.72;;;;;;;;;;5076485;28;20223;-84
2022/06/30 09:06:54;;;;;;;6.68;6.15;;;;;;;;;;5077191;28;20579;-84
2022/06/30 09:09:22;;;;;;;5.97;5.57;;;;;;;;;;5077551;28;20682;-84
2022/06/30 09:11:52;;;;;;;5.90;5.45;;;;;;;;;;5077537;28;20266;-85
2022/06/30 09:14:34;;;;;;;5.95;5.55;;;;;;;;;;5077793;28;20261;-84
2022/06/30 09:17:02;;;;;;;7.45;6.85;;;;;;;;;;5077579;28;20201;-84
2022/06/30 09:19:31;;;;;;;6.50;6.00;;;;;;;;;;5077553;28;20658;-84
2022/06/30 09:22:07;;;;;;;6.10;5.68;;;;;;;;;;5078470;28;20632;-85
2022/06/30 09:24:35;;;;;;;6.00;5.60;;;;;;;;;;5077603;28;20574;-85
2022/06/30 09:27:17;;;;;;;6.32;5.85;;;;;;;;;;5078123;28;20459;-84
2022/06/30 09:29:53;;;;;;;5.03;4.63;;;;;;;;;;5076810;28;20181;-84
2022/06/30 09:32:21;;;;;;;4.93;4.50;;;;;;;;;;5076206;28;20256;-85
2022/06/30 09:34:52;;;;;;;4.25;3.92;;;;;;;;;;5077645;28;20288;-85
2022/06/30 09:37:22;;;;;;;4.57;4.28;;;;;;;;;;5077417;28;20299;-84
2022/06/30 09:39:51;;;;;;;4.95;4.65;;;;;;;;;;5077522;28;20236;-85
2022/06/30 09:42:44;;;;;;;5.47;5.07;;;;;;;;;;5076463;28;20749;-85
2022/06/30 09:45:16;;;;;;;5.75;5.32;;;;;;;;;;5077276;28;20213;-85
2022/06/30 09:47:55;;;;;;;5.28;4.95;;;;;;;;;;5077472;28;20282;-84
2022/06/30 09:50:24;;;;;;;4.68;4.35;;;;;;;;;;5077634;28;20232;-86
2022/06/30 09:53:06;;;;;;;4.18;3.97;;;;;;;;;;5076491;28;20197;-84
2022/06/30 09:55:44;;;;;;;4.30;4.00;;;;;;;;;;5077356;28;20208;-85
2022/06/30 09:58:13;;;;;;;5.65;5.28;;;;;;;;;;5077065;28;20251;-84
2022/06/30 10:00:49;;;;;;;6.57;6.07;;;;;;;;;;5077455;28;20229;-85
2022/06/30 10:03:17;;;;;;;4.93;4.63;;;;;;;;;;5079290;28;20201;-85
2022/06/30 10:05:48;;;;;;;6.63;5.82;;;;;;;;;;5080985;28;20288;-84
2022/06/30 10:08:18;;;;;;;5.65;5.25;;;;;;;;;;5081394;28;20221;-85
2022/06/30 10:10:47;;;;;;;5.47;4.85;;;;;;;;;;5081860;28;20236;-83
2022/06/30 10:13:17;;;;;;;5.07;4.68;;;;;;;;;;5081520;28;20212;-85
2022/06/30 10:15:54;;;;;;;4.57;3.92;;;;;;;;;;5080994;28;20248;-85
2022/06/30 10:18:24;;;;;;;4.85;4.55;;;;;;;;;;5080352;28;20227;-84
2022/06/30 10:20:53;;;;;;;5.75;5.38;;;;;;;;;;5071801;28;20293;-85
2022/06/30 10:23:22;;;;;;;6.20;5.70;;;;;;;;;;5060246;28;20202;-84
2022/06/30 10:25:50;;;;;;;5.13;4.70;;;;;;;;;;5060213;28;20230;-85
2022/06/30 10:28:20;;;;;;;4.32;4.03;;;;;;;;;;5059894;28;20687;-85
2022/06/30 10:30:55;;;;;;;4.68;4.38;;;;;;;;;;5061581;28;20734;-84
2022/06/30 10:33:30;;;;;;;5.38;5.00;;;;;;;;;;5059658;28;20203;-84
2022/06/30 10:36:05;;;;;;;5.20;4.90;;;;;;;;;;5060492;28;20185;-85
2022/06/30 10:38:35;;;;;;;4.53;4.22;;;;;;;;;;5060666;28;20592;-84
2022/06/30 10:41:11;;;;;;;4.55;4.25;;;;;;;;;;5061100;28;20557;-84
2022/06/30 10:44:14;;;;;;;4.35;4.05;;;;;;;;;;5059393;28;20202;-85
2022/06/30 10:47:07;;;;;;;3.90;3.58;;;;;;;;;;5060456;28;20240;-84
2022/06/30 10:49:35;;;;;;;5.32;4.82;;;;;;;;;;5060475;28;20212;-84
2022/06/30 10:52:24;;;;;;;4.43;4.13;;;;;;;;;;5078955;28;20228;-85
2022/06/30 10:55:02;;;;;;;4.53;4.22;;;;;;;;;;5079166;28;20205;-85
2022/06/30 10:58:07;;;;;;;5.40;5.00;;;;;;;;;;5079586;28;20252;-84
2022/06/30 11:01:01;;;;;;;5.00;4.65;;;;;;;;;;5079272;28;20222;-84
2022/06/30 11:04:00;;;;;;;4.88;4.57;;;;;;;;;;5079579;28;20197;-84
2022/06/30 11:07:09;;;;;;;4.32;4.03;;;;;;;;;;5079314;28;20223;-84
2022/06/30 11:10:26;;;;;;;3.75;3.47;;;;;;;;;;5075220;28;20653;-84
2022/06/30 11:13:07;;;;;;;4.25;3.92;;;;;;;;;;5077595;28;20248;-82
2022/06/30 11:15:53;;;;;;;4.78;4.38;;;;;;;;;;5077432;28;20205;-83
2022/06/30 11:18:21;;;;;;;3.67;3.47;;;;;;;;;;5078916;28;20609;-84
2022/06/30 11:20:50;;;;;;;4.25;3.85;;;;;;;;;;5079249;28;20306;-84
2022/06/30 11:23:22;;;;;;;4.07;3.88;;;;;;;;;;5078226;28;20201;-83
2022/06/30 11:28:55;;;;;;;5.07;4.78;;;;;;;;;;5015521;28;20301;-83
2022/06/30 11:31:34;;;;;;;4.80;4.50;;;;;;;;;;5015149;28;20203;-83
2022/06/30 11:34:08;;;;;;;4.57;4.28;;;;;;;;;;5047791;28;20224;-83
2022/06/30 11:36:37;;;;;;;4.65;4.35;;;;;;;;;;5078151;28;20200;-84
2022/06/30 11:39:08;;;;;;;4.70;4.40;;;;;;;;;;5078436;28;20224;-83
2022/06/30 11:41:58;;;;;;;5.30;4.90;;;;;;;;;;5076558;28;20715;-84
2022/06/30 11:44:27;;;;;;;4.95;4.55;;;;;;;;;;5077833;28;20201;-84
2022/06/30 11:46:59;;;;;;;5.13;4.72;;;;;;;;;;5077684;28;20201;-83
2022/06/30 11:49:38;;;;;;;5.43;4.93;;;;;;;;;;5075785;28;20717;-83
2022/06/30 11:52:14;;;;;;;5.63;5.20;;;;;;;;;;5068218;28;20233;-84
2022/06/30 11:54:45;;;;;;;6.90;6.05;;;;;;;;;;5056596;28;20266;-84
2022/06/30 11:57:14;;;;;;;5.90;5.50;;;;;;;;;;5057369;28;20647;-83
2022/06/30 11:59:45;;;;;;;5.70;5.30;;;;;;;;;;5058157;28;20738;-84
2022/06/30 12:02:14;;;;;;;6.50;6.00;;;;;;;;;;5057408;28;20265;-84
2022/06/30 12:04:43;;;;;;;5.55;5.15;;;;;;;;;;5057912;28;20624;-84
2022/06/30 12:07:14;;;;;;;5.18;4.85;;;;;;;;;;5057394;28;20193;-82
2022/06/30 12:09:42;;;;;;;5.00;4.60;;;;;;;;;;5057166;28;20231;-83
2022/06/30 12:12:11;;;;;;;5.80;5.30;;;;;;;;;;5057126;28;20252;-82
2022/06/30 12:14:41;;;;;;;5.90;5.32;;;;;;;;;;5056424;28;20220;-83
2022/06/30 12:17:12;;;;;;;6.05;5.55;;;;;;;;;;5057054;28;20205;-83
2022/06/30 12:19:41;;;;;;;6.35;5.85;;;;;;;;;;5056823;28;20234;-83
2022/06/30 12:22:09;;;;;;;5.90;5.40;;;;;;;;;;5063916;28;20257;-82
2022/06/30 12:24:39;;;;;;;6.35;5.75;;;;;;;;;;5076436;28;20237;-83
2022/06/30 12:27:07;;;;;;;5.95;5.45;;;;;;;;;;5075704;28;20572;-83
2022/06/30 12:29:35;;;;;;;5.50;5.00;;;;;;;;;;5077837;28;20232;-84
2022/06/30 12:32:09;;;;;;;5.68;5.20;;;;;;;;;;5077034;28;20701;-83
2022/06/30 12:34:51;;;;;;;6.28;5.78;;;;;;;;;;5076078;28;20201;-82
2022/06/30 12:37:27;;;;;;;4.78;4.38;;;;;;;;;;5075249;28;20198;-84
2022/06/30 12:39:57;;;;;;;5.15;4.78;;;;;;;;;;5077510;28;20262;-83
2022/06/30 12:42:26;;;;;;;5.00;4.70;;;;;;;;;;5075574;28;20203;-83
2022/06/30 12:44:54;;;;;;;5.07;4.68;;;;;;;;;;5076945;28;20204;-84
2022/06/30 12:47:23;;;;;;;4.63;4.32;;;;;;;;;;5078368;28;20291;-83
2022/06/30 12:49:50;;;;;;;4.00;3.75;;;;;;;;;;5077523;28;20603;-84
2022/06/30 12:52:20;;;;;;;5.70;5.30;;;;;;;;;;5076659;28;20259;-83
2022/06/30 12:54:53;;;;;;;5.45;5.05;;;;;;;;;;5078313;28;20577;-83
2022/06/30 12:57:21;;;;;;;4.63;4.32;;;;;;;;;;5077254;28;20211;-84
2022/06/30 12:59:53;;;;;;;5.07;4.68;;;;;;;;;;5077155;28;20658;-85
2022/06/30 13:02:23;;;;;;;4.85;4.45;;;;;;;;;;5076315;28;20328;-83
2022/06/30 13:04:53;;;;;;;5.75;5.18;;;;;;;;;;5075900;28;20241;-83
2022/06/30 13:07:21;;;;;;;4.65;4.35;;;;;;;;;;5077500;28;20215;-85
2022/06/30 13:09:49;;;;;;;5.25;4.85;;;;;;;;;;5075819;28;20228;-84
2022/06/30 13:12:18;;;;;;;6.28;5.38;;;;;;;;;;5076495;28;20626;-84
2022/06/30 13:14:46;;;;;;;4.30;4.00;;;;;;;;;;5077713;28;20201;-84
2022/06/30 13:17:14;;;;;;;4.90;4.60;;;;;;;;;;5077398;28;20229;-84
2022/06/30 13:19:43;;;;;;;5.63;5.22;;;;;;;;;;5077137;28;20645;-84
2022/06/30 13:22:11;;;;;;;4.63;4.30;;;;;;;;;;5076461;28;20239;-84
2022/06/30 13:24:38;;;;;;;4.97;4.57;;;;;;;;;;5076782;28;20235;-83
2022/06/30 13:27:07;;;;;;;4.85;4.47;;;;;;;;;;5075673;28;20236;-84
2022/06/30 13:29:36;;;;;;;4.93;4.53;;;;;;;;;;5076515;28;20243;-83
2022/06/30 13:32:04;;;;;;;5.32;4.90;;;;;;;;;;5076604;28;20270;-85
2022/06/30 13:34:32;;;;;;;5.40;4.60;;;;;;;;;;5076498;28;20220;-84
2022/06/30 13:37:01;;;;;;;5.47;5.00;;;;;;;;;;5076895;28;20200;-84
2022/06/30 13:39:28;;;;;;;4.22;3.92;;;;;;;;;;5079848;28;20270;-82
2022/06/30 13:41:56;;;;;;;4.38;4.07;;;;;;;;;;5079264;28;20255;-83
2022/06/30 13:44:24;;;;;;;4.43;4.13;;;;;;;;;;5080179;28;20240;-83
2022/06/30 13:46:51;;;;;;;4.90;4.60;;;;;;;;;;5080729;28;20224;-83
2022/06/30 13:49:19;;;;;;;5.22;4.82;;;;;;;;;;5079927;28;20672;-82
2022/06/30 13:51:46;;;;;;;5.50;5.00;;;;;;;;;;5079516;28;20244;-83
2022/06/30 13:54:15;;;;;;;5.18;4.78;;;;;;;;;;5078866;28;20228;-83
2022/06/30 13:56:43;;;;;;;4.50;4.20;;;;;;;;;;5080195;28;20236;-83
2022/06/30 13:59:10;;;;;;;4.65;4.25;;;;;;;;;;5079935;28;20256;-83
2022/06/30 14:01:38;;;;;;;5.07;4.68;;;;;;;;;;5079282;28;20636;-82
2022/06/30 14:04:06;;;;;;;5.05;4.65;;;;;;;;;;5080359;28;20229;-82
2022/06/30 14:06:33;;;;;;;5.40;5.00;;;;;;;;;;5079951;28;20254;-83
2022/06/30 14:09:01;;;;;;;5.45;4.75;;;;;;;;;;5079378;28;20693;-82
2022/06/30 14:11:30;;;;;;;5.20;4.80;;;;;;;;;;5079311;28;20204;-82
2022/06/30 14:13:58;;;;;;;4.53;4.13;;;;;;;;;;5079542;28;20249;-83
2022/06/30 14:16:26;;;;;;;4.63;4.20;;;;;;;;;;5079500;28;20574;-82
2022/06/30 14:18:53;;;;;;;3.97;3.67;;;;;;;;;;5080194;28;20229;-82
2022/06/30 14:21:21;;;;;;;5.28;4.90;;;;;;;;;;5080185;28;20243;-83
2022/06/30 14:23:48;;;;;;;4.72;4.32;;;;;;;;;;5079262;28;20347;-83
2022/06/30 14:26:16;;;;;;;3.85;3.65;;;;;;;;;;5080186;28;20212;-82
2022/06/30 14:28:45;;;;;;;4.20;3.90;;;;;;;;;;5079160;28;20221;-83
2022/06/30 14:31:12;;;;;;;3.60;3.40;;;;;;;;;;5079511;28;20638;-83
2022/06/30 14:33:40;;;;;;;4.13;3.72;;;;;;;;;;5078057;28;20263;-83
2022/06/30 14:36:08;;;;;;;4.20;3.90;;;;;;;;;;5079149;28;20236;-84
2022/06/30 14:38:37;;;;;;;4.38;4.00;;;;;;;;;;5078422;28;20303;-83
2022/06/30 14:41:04;;;;;;;4.15;3.85;;;;;;;;;;5079276;28;20201;-83
2022/06/30 14:43:31;;;;;;;4.20;3.90;;;;;;;;;;5078356;28;20679;-82
2022/06/30 14:46:00;;;;;;;2.75;2.55;;;;;;;;;;5079489;28;20208;-83
2022/06/30 14:48:27;;;;;;;3.80;3.50;;;;;;;;;;5078694;28;20228;-83
2022/06/30 14:50:55;;;;;;;3.25;3.05;;;;;;;;;;5078825;28;20669;-83
2022/06/30 14:53:22;;;;;;;3.20;3.00;;;;;;;;;;5078291;28;20228;-83
2022/06/30 14:55:50;;;;;;;3.42;3.22;;;;;;;;;;5078809;28;20655;-82
2022/06/30 14:58:17;;;;;;;3.13;2.92;;;;;;;;;;5077957;28;20260;-83
2022/06/30 15:00:45;;;;;;;3.35;3.05;;;;;;;;;;5078136;28;20255;-85
2022/06/30 15:03:14;;;;;;;4.03;3.72;;;;;;;;;;5079251;28;20212;-84
2022/06/30 15:05:42;;;;;;;4.40;4.10;;;;;;;;;;5079151;28;20258;-85
2022/06/30 15:08:09;;;;;;;4.20;3.92;;;;;;;;;;5078933;28;20224;-84
2022/06/30 15:10:39;;;;;;;4.78;4.47;;;;;;;;;;5078753;28;20205;-86
2022/06/30 15:13:06;;;;;;;3.80;3.60;;;;;;;;;;5079984;28;20291;-85